Time;durP1;ratioP1;P1;durP2;ratioP2;P2;SDS_P1;SDS_P2;PMS_P1;PMS_P2;Temp;Humidity;BMP_temperature;BMP_pressure;BME280_temperature;BME280_humidity;BME280_pressure;Samples;Min_cycle;Max_cycle;Signal;HPM_P1;HPM_P2
2023/04/02 00:02:30;;;;;;;34.20;8.17;;;10.30;99.90;;;;;;4983612;28;20859;-62
2023/04/02 00:05:33;;;;;;;48.40;11.07;;;10.20;99.90;;;;;;4975407;28;20588;-62
2023/04/02 00:08:02;;;;;;;36.70;8.50;;;10.20;99.90;;;;;;4976388;28;20524;-62
2023/04/02 00:10:31;;;;;;;102.10;14.73;;;10.10;99.90;;;;;;4997367;28;20490;-62
2023/04/02 00:13:06;;;;;;;35.83;9.53;;;10.20;99.90;;;;;;4993622;28;20754;-62
2023/04/02 00:15:34;;;;;;;44.77;8.83;;;10.20;99.90;;;;;;4984152;28;20493;-62
2023/04/02 00:18:03;;;;;;;47.97;9.03;;;10.20;99.90;;;;;;4987425;28;20750;-61
2023/04/02 00:20:33;;;;;;;37.67;8.50;;;10.10;99.90;;;;;;4979830;28;20520;-62
2023/04/02 00:23:00;;;;;;;50.43;9.30;;;10.20;99.90;;;;;;4983254;28;20493;-62
2023/04/02 00:25:29;;;;;;;40.33;9.50;;;10.20;99.90;;;;;;4989034;28;20485;-62
2023/04/02 00:27:57;;;;;;;33.97;8.07;;;;;;;;;;4998035;28;20476;-62
2023/04/02 00:30:24;;;;;;;142.73;15.50;;;10.30;99.90;;;;;;4981646;28;20743;-62
2023/04/02 00:32:51;;;;;;;51.23;10.40;;;;;;;;;;5000884;28;20486;-62
2023/04/02 00:35:22;;;;;;;163.77;18.70;;;;;;;;;;4976723;28;20528;-62
2023/04/02 00:37:50;;;;;;;93.33;12.63;;;10.30;99.90;;;;;;4990023;28;20477;-62
2023/04/02 00:40:19;;;;;;;47.07;9.77;;;;;;;;;;4988535;28;20849;-61
2023/04/02 00:42:47;;;;;;;80.63;11.07;;;;;;;;;;4991233;28;20967;-62
2023/04/02 00:45:21;;;;;;;82.40;13.60;;;10.30;99.90;;;;;;4984434;28;20476;-62
2023/04/02 00:47:48;;;;;;;105.53;12.70;;;;;;;;;;4976039;28;20489;-62
2023/04/02 00:50:27;;;;;;;109.77;14.83;;;9.20;99.90;;;;;;4998978;28;20872;-62
2023/04/02 00:52:55;;;;;;;89.17;13.10;;;;;;;;;;4984342;28;20535;-62
2023/04/02 00:55:24;;;;;;;135.47;16.73;;;;;;;;;;4971618;28;20481;-62
2023/04/02 00:57:52;;;;;;;40.70;9.30;;;10.20;99.90;;;;;;4993384;28;20481;-62
2023/04/02 01:00:24;;;;;;;53.00;11.77;;;10.20;99.90;;;;;;4990048;28;20995;-62
2023/04/02 01:03:33;;;;;;;37.73;9.60;;;10.30;99.90;;;;;;4982129;28;20489;-62
2023/04/02 01:06:09;;;;;;;30.97;9.83;;;10.20;99.90;;;;;;4980789;28;20505;-62
2023/04/02 01:08:59;;;;;;;28.73;9.90;;;10.20;99.90;;;;;;4996170;28;20857;-63
2023/04/02 01:11:47;;;;;;;58.77;12.97;;;10.20;99.90;;;;;;5006954;28;20914;-62
2023/04/02 01:14:26;;;;;;;35.07;10.73;;;10.10;99.90;;;;;;5023721;28;20982;-62
2023/04/02 01:16:59;;;;;;;27.60;7.80;;;10.00;99.90;;;;;;5006621;28;20484;-62
2023/04/02 01:20:00;;;;;;;40.47;12.97;;;10.10;99.90;;;;;;5030463;28;21045;-62
2023/04/02 01:22:40;;;;;;;36.30;12.10;;;10.00;99.90;;;;;;5022135;28;20559;-62
2023/04/02 01:25:07;;;;;;;18.33;7.57;;;10.00;99.90;;;;;;4994990;28;20564;-62
2023/04/02 01:27:41;;;;;;;18.00;8.60;;;10.00;99.90;;;;;;4994490;28;20533;-62
2023/04/02 01:30:13;;;;;;;14.77;7.10;;;9.90;99.90;;;;;;4984628;28;20825;-62
2023/04/02 01:32:40;;;;;;;19.63;9.47;;;9.90;99.90;;;;;;4981946;28;20493;-63
2023/04/02 01:35:09;;;;;;;19.77;9.00;;;10.00;99.90;;;;;;4999196;28;20652;-61
2023/04/02 01:37:43;;;;;;;13.07;6.87;;;10.00;99.90;;;;;;4962321;28;20919;-62
2023/04/02 01:40:22;;;;;;;13.37;7.13;;;9.90;99.90;;;;;;4989475;28;20560;-62
2023/04/02 01:42:57;;;;;;;17.30;8.93;;;9.90;99.90;;;;;;5003362;28;20498;-62
2023/04/02 01:45:26;;;;;;;29.00;12.73;;;9.90;99.90;;;;;;5007488;28;20499;-62
2023/04/02 01:47:52;;;;;;;18.03;8.63;;;9.90;99.90;;;;;;4997564;28;21044;-62
2023/04/02 01:50:30;;;;;;;32.80;8.10;;;10.00;99.90;;;;;;4985905;28;20509;-62
2023/04/02 01:52:59;;;;;;;14.93;7.90;;;10.00;99.90;;;;;;4980073;28;20842;-62
2023/04/02 01:55:32;;;;;;;20.50;9.50;;;10.10;99.90;;;;;;4988486;28;20989;-62
2023/04/02 01:58:01;;;;;;;19.13;9.07;;;10.10;99.90;;;;;;4998494;28;20483;-62
2023/04/02 02:00:30;;;;;;;26.40;11.50;;;10.10;99.90;;;;;;4986783;28;20703;-62
2023/04/02 02:02:57;;;;;;;17.87;7.50;;;10.00;99.90;;;;;;5009872;28;20637;-62
2023/04/02 02:05:24;;;;;;;24.43;9.70;;;10.00;99.90;;;;;;4985487;28;20500;-62
2023/04/02 02:07:51;;;;;;;19.87;8.80;;;10.00;99.90;;;;;;5011262;28;20474;-62
2023/04/02 02:10:24;;;;;;;16.87;6.70;;;10.00;99.90;;;;;;4989437;28;20921;-61
2023/04/02 02:12:51;;;;;;;14.93;8.07;;;10.00;99.90;;;;;;4987635;28;20509;-62
2023/04/02 02:15:20;;;;;;;26.00;11.53;;;9.90;99.90;;;;;;4990341;28;20480;-61
2023/04/02 02:17:49;;;;;;;23.80;9.87;;;9.90;99.90;;;;;;5007098;28;20495;-63
2023/04/02 02:20:17;;;;;;;22.07;9.43;;;9.90;99.90;;;;;;4985100;28;20992;-62
2023/04/02 02:22:46;;;;;;;18.03;7.63;;;9.90;99.90;;;;;;4978810;28;20927;-62
2023/04/02 02:25:16;;;;;;;15.60;8.50;;;10.00;99.90;;;;;;4977475;28;20944;-62
2023/04/02 02:27:55;;;;;;;17.23;8.47;;;10.00;99.90;;;;;;4964035;28;20481;-62
2023/04/02 02:30:26;;;;;;;34.10;13.03;;;9.90;99.90;;;;;;5002140;28;20542;-62
2023/04/02 02:33:01;;;;;;;20.10;9.33;;;9.90;99.90;;;;;;5010073;28;20495;-62
2023/04/02 02:35:31;;;;;;;23.17;9.87;;;10.00;99.90;;;;;;5008137;28;20496;-62
2023/04/02 02:38:19;;;;;;;24.77;11.40;;;10.00;99.90;;;;;;5007910;28;20482;-62
2023/04/02 02:40:52;;;;;;;21.20;9.17;;;10.00;99.90;;;;;;5019173;28;20493;-62
2023/04/02 02:43:20;;;;;;;28.93;12.00;;;10.10;99.90;;;;;;4979109;28;20482;-62
2023/04/02 02:45:48;;;;;;;20.13;8.30;;;10.10;99.90;;;;;;4978382;28;20481;-62
2023/04/02 02:48:20;;;;;;;18.37;8.47;;;10.10;99.90;;;;;;4995203;28;20738;-62
2023/04/02 02:50:47;;;;;;;21.60;8.97;;;10.00;99.90;;;;;;5004810;28;20485;-62
2023/04/02 02:53:19;;;;;;;21.27;9.70;;;10.00;99.90;;;;;;4986978;28;20494;-62
2023/04/02 02:55:49;;;;;;;12.80;6.80;;;10.00;99.90;;;;;;4989009;28;20489;-62
2023/04/02 02:58:19;;;;;;;9.20;5.30;;;9.90;99.90;;;;;;4998228;28;20481;-62
2023/04/02 03:00:46;;;;;;;18.10;7.07;;;9.90;99.90;;;;;;4984621;28;20480;-61
2023/04/02 03:03:18;;;;;;;18.53;8.17;;;9.90;99.90;;;;;;4991226;28;20904;-62
2023/04/02 03:05:49;;;;;;;12.30;6.10;;;10.00;99.90;;;;;;4943611;28;20477;-62
2023/04/02 03:08:20;;;;;;;19.93;9.37;;;10.00;99.90;;;;;;4990452;28;20495;-62
2023/04/02 03:10:54;;;;;;;19.20;9.37;;;10.00;99.90;;;;;;4981425;28;20480;-62
2023/04/02 03:13:24;;;;;;;15.53;6.20;;;10.00;99.90;;;;;;4994018;28;20946;-62
2023/04/02 03:16:00;;;;;;;15.57;7.17;;;10.00;99.90;;;;;;4998039;28;20494;-62
2023/04/02 03:18:35;;;;;;;19.77;9.23;;;10.10;99.90;;;;;;4983277;28;20476;-62
2023/04/02 03:21:10;;;;;;;10.93;6.53;;;10.10;99.90;;;;;;4984398;28;20476;-62
2023/04/02 03:23:42;;;;;;;11.20;6.53;;;10.10;99.90;;;;;;4974880;28;20994;-62
2023/04/02 03:26:15;;;;;;;12.07;6.37;;;10.10;99.90;;;;;;4989983;28;20472;-62
2023/04/02 03:28:46;;;;;;;15.93;7.03;;;10.10;99.90;;;;;;4999610;28;20483;-62
2023/04/02 03:31:17;;;;;;;14.30;6.30;;;10.10;99.90;;;;;;4994814;28;20480;-62
2023/04/02 03:33:51;;;;;;;16.53;8.17;;;10.20;99.90;;;;;;4986610;28;20474;-62
2023/04/02 03:36:22;;;;;;;23.60;9.20;;;10.20;99.90;;;;;;4979959;28;20896;-62
2023/04/02 03:38:52;;;;;;;17.07;8.50;;;10.10;99.90;;;;;;4986567;28;20490;-62
2023/04/02 03:41:22;;;;;;;17.10;7.70;;;10.10;99.90;;;;;;5006404;28;20488;-61
2023/04/02 03:43:52;;;;;;;20.90;8.70;;;10.10;99.90;;;;;;4997762;28;20821;-62
2023/04/02 03:46:27;;;;;;;24.80;10.73;;;10.10;99.90;;;;;;4996243;28;20486;-62
2023/04/02 03:48:57;;;;;;;14.53;7.23;;;10.00;99.90;;;;;;4994123;28;20897;-62
2023/04/02 03:51:27;;;;;;;29.17;11.77;;;10.00;99.90;;;;;;4984300;28;20936;-62
2023/04/02 03:53:55;;;;;;;19.40;8.57;;;10.00;99.90;;;;;;4973028;28;20481;-62
2023/04/02 03:56:28;;;;;;;20.50;6.90;;;10.10;99.90;;;;;;4984139;28;20576;-62
2023/04/02 03:59:05;;;;;;;14.80;7.30;;;10.10;99.90;;;;;;4999533;28;20509;-62
2023/04/02 04:01:37;;;;;;;27.77;7.20;;;10.10;99.90;;;;;;4970326;28;20797;-62
2023/04/02 04:04:10;;;;;;;13.27;6.53;;;10.10;99.90;;;;;;5009279;28;20854;-62
2023/04/02 04:06:41;;;;;;;15.90;7.87;;;10.10;99.90;;;;;;4979186;28;21999;-62
2023/04/02 04:09:11;;;;;;;10.33;6.00;;;10.10;99.90;;;;;;4993592;28;20485;-62
2023/04/02 04:11:43;;;;;;;15.67;7.60;;;10.10;99.90;;;;;;5006550;28;20998;-62
2023/04/02 04:14:16;;;;;;;21.17;5.83;;;10.10;99.90;;;;;;5016384;28;20513;-61
2023/04/02 04:16:47;;;;;;;16.57;8.10;;;10.20;99.90;;;;;;4996346;28;20475;-62
2023/04/02 04:19:23;;;;;;;17.17;8.03;;;10.20;99.90;;;;;;4984537;28;20488;-62
2023/04/02 04:21:52;;;;;;;16.43;7.40;;;10.20;99.90;;;;;;4979099;28;20978;-62
2023/04/02 04:24:22;;;;;;;28.13;10.23;;;10.20;99.90;;;;;;4998319;28;20649;-62
2023/04/02 04:26:54;;;;;;;24.30;8.63;;;10.20;99.90;;;;;;5002885;28;20842;-62
2023/04/02 04:29:33;;;;;;;20.20;8.60;;;10.30;99.90;;;;;;5003540;28;20473;-62
2023/04/02 04:32:16;;;;;;;13.30;6.40;;;10.40;99.90;;;;;;4995980;28;21287;-62
2023/04/02 04:34:52;;;;;;;18.20;8.03;;;10.30;99.90;;;;;;4976788;28;20490;-62
2023/04/02 04:37:24;;;;;;;20.23;7.80;;;10.30;99.90;;;;;;4994897;28;20500;-62
2023/04/02 04:39:55;;;;;;;15.23;7.37;;;10.30;99.90;;;;;;5005808;28;20481;-62
2023/04/02 04:42:27;;;;;;;25.87;9.80;;;10.20;99.90;;;;;;4996047;28;20485;-62
2023/04/02 04:44:58;;;;;;;18.07;7.93;;;10.30;99.90;;;;;;4987150;28;20519;-62
2023/04/02 04:47:31;;;;;;;25.87;10.10;;;10.20;99.90;;;;;;4989884;28;20497;-62
2023/04/02 04:50:05;;;;;;;16.47;6.07;;;10.30;99.90;;;;;;5005709;28;20904;-62
2023/04/02 04:52:36;;;;;;;24.77;8.77;;;10.30;99.90;;;;;;4990168;28;21014;-62
2023/04/02 04:55:04;;;;;;;13.23;6.50;;;10.40;99.90;;;;;;5001565;28;20476;-62
2023/04/02 04:57:34;;;;;;;12.77;6.27;;;10.40;99.90;;;;;;4986737;28;20486;-61
2023/04/02 05:00:07;;;;;;;16.90;7.73;;;10.40;99.90;;;;;;4983714;28;20729;-62
2023/04/02 05:02:40;;;;;;;19.40;7.90;;;10.40;99.90;;;;;;4980226;28;20497;-62
2023/04/02 05:05:18;;;;;;;13.47;6.90;;;10.40;99.90;;;;;;4976700;28;20499;-62
2023/04/02 05:07:48;;;;;;;17.70;6.87;;;10.40;99.90;;;;;;5006296;28;20565;-62
2023/04/02 05:10:23;;;;;;;20.93;8.57;;;10.40;99.90;;;;;;5016122;28;20478;-62
2023/04/02 05:12:55;;;;;;;16.70;8.10;;;10.40;99.90;;;;;;4984068;28;20494;-62
2023/04/02 05:15:28;;;;;;;23.83;10.53;;;10.30;99.90;;;;;;5007782;28;20516;-62
2023/04/02 05:18:00;;;;;;;14.13;7.30;;;10.30;99.90;;;;;;5003039;28;20469;-62
2023/04/02 05:20:34;;;;;;;16.87;6.60;;;10.30;99.90;;;;;;4982881;28;20486;-62
2023/04/02 05:23:05;;;;;;;16.03;8.30;;;10.30;99.90;;;;;;5014724;28;20833;-62
2023/04/02 05:25:33;;;;;;;20.07;8.17;;;10.30;99.90;;;;;;4995639;28;20789;-62
2023/04/02 05:28:06;;;;;;;13.70;6.43;;;10.30;99.90;;;;;;4982953;28;20496;-62
2023/04/02 05:30:48;;;;;;;16.10;6.67;;;10.30;99.90;;;;;;5000667;28;20486;-62
2023/04/02 05:33:22;;;;;;;16.53;7.77;;;10.30;99.90;;;;;;4973277;28;20545;-62
2023/04/02 05:35:55;;;;;;;18.07;8.50;;;10.20;99.90;;;;;;4980059;28;20629;-62
2023/04/02 05:38:25;;;;;;;34.83;12.70;;;10.20;99.90;;;;;;4995890;28;20474;-62
2023/04/02 05:40:59;;;;;;;21.37;8.90;;;10.20;99.90;;;;;;4980214;28;20503;-62
2023/04/02 05:43:28;;;;;;;37.40;9.13;;;10.10;99.90;;;;;;4999884;28;21083;-62
2023/04/02 05:45:59;;;;;;;15.93;7.60;;;10.10;99.90;;;;;;4995496;28;20503;-61
2023/04/02 05:48:29;;;;;;;30.70;11.80;;;10.10;99.90;;;;;;5002834;28;20493;-62
2023/04/02 05:50:58;;;;;;;17.30;7.00;;;10.10;99.90;;;;;;4994117;28;20492;-61
2023/04/02 05:53:28;;;;;;;27.70;10.53;;;10.00;99.90;;;;;;4997951;28;20481;-62
2023/04/02 05:55:58;;;;;;;27.73;9.10;;;10.00;99.90;;;;;;5014707;28;20478;-62
2023/04/02 05:58:31;;;;;;;31.80;11.33;;;10.10;99.90;;;;;;4985826;28;20477;-62
2023/04/02 06:01:07;;;;;;;17.03;8.00;;;10.00;99.90;;;;;;4996820;28;20493;-62
2023/04/02 06:03:43;;;;;;;17.73;7.97;;;9.50;99.90;;;;;;5005351;28;20748;-62
2023/04/02 06:06:18;;;;;;;16.03;7.43;;;10.00;99.90;;;;;;4998315;28;20571;-62
2023/04/02 06:08:54;;;;;;;18.83;6.77;;;10.10;99.90;;;;;;4971186;28;20482;-62
2023/04/02 06:11:26;;;;;;;33.57;11.60;;;10.10;99.90;;;;;;4974598;28;20489;-62
2023/04/02 06:13:52;;;;;;;23.03;7.37;;;10.10;99.90;;;;;;4996388;28;20480;-62
2023/04/02 06:16:30;;;;;;;27.23;10.40;;;10.10;99.90;;;;;;4988973;28;20505;-62
2023/04/02 06:18:58;;;;;;;21.43;9.10;;;;;;;;;;4994284;28;20965;-62
2023/04/02 06:21:26;;;;;;;28.33;10.40;;;10.10;99.90;;;;;;4987463;28;20509;-62
2023/04/02 06:23:56;;;;;;;22.30;9.10;;;10.10;99.90;;;;;;4999149;28;20596;-62
2023/04/02 06:26:27;;;;;;;31.97;11.10;;;10.10;99.90;;;;;;4972514;28;20582;-62
2023/04/02 06:29:00;;;;;;;24.17;9.17;;;10.10;99.90;;;;;;4981278;28;21358;-62
2023/04/02 06:31:30;;;;;;;29.60;9.40;;;10.10;99.90;;;;;;4981278;28;20509;-62
2023/04/02 06:33:57;;;;;;;21.83;7.60;;;10.20;99.90;;;;;;4974843;28;20490;-62
2023/04/02 06:36:27;;;;;;;40.30;13.60;;;10.20;99.90;;;;;;4996210;28;21021;-62
2023/04/02 06:38:58;;;;;;;24.00;8.77;;;10.20;99.90;;;;;;5008111;28;20484;-62
2023/04/02 06:41:25;;;;;;;31.33;11.07;;;10.30;99.90;;;;;;4981304;28;20476;-62
2023/04/02 06:43:56;;;;;;;25.20;10.33;;;10.30;99.90;;;;;;4991870;28;20480;-62
2023/04/02 06:46:30;;;;;;;41.80;10.60;;;10.40;99.90;;;;;;4988153;28;20471;-62
2023/04/02 06:49:04;;;;;;;21.23;8.77;;;10.50;99.90;;;;;;4971359;28;20492;-62
2023/04/02 06:51:36;;;;;;;18.73;8.10;;;10.60;99.90;;;;;;4998460;28;20473;-62
2023/04/02 06:54:03;;;;;;;18.17;7.93;;;10.60;99.90;;;;;;4994588;28;20481;-62
2023/04/02 06:56:40;;;;;;;22.83;8.63;;;10.60;99.90;;;;;;4991722;28;21539;-61
2023/04/02 06:59:07;;;;;;;12.47;5.77;;;10.70;99.90;;;;;;4990081;28;20802;-61
2023/04/02 07:01:38;;;;;;;20.77;8.00;;;10.70;99.90;;;;;;4995538;28;20510;-61
2023/04/02 07:04:05;;;;;;;14.83;5.63;;;10.70;99.90;;;;;;5005843;28;20801;-62
2023/04/02 07:06:34;;;;;;;16.37;6.00;;;10.70;99.90;;;;;;5003943;28;20496;-62
2023/04/02 07:09:01;;;;;;;21.17;7.27;;;10.70;99.90;;;;;;4989514;28;21010;-61
2023/04/02 07:11:28;;;;;;;28.33;8.70;;;;;;;;;;5006370;28;20486;-62
2023/04/02 07:13:55;;;;;;;24.23;8.40;;;10.80;99.90;;;;;;4996179;28;20961;-62
2023/04/02 07:16:24;;;;;;;51.30;13.10;;;10.70;99.90;;;;;;5007047;28;20472;-62
2023/04/02 07:18:51;;;;;;;26.73;8.30;;;10.80;99.90;;;;;;5005587;28;20567;-62
2023/04/02 07:21:18;;;;;;;39.13;10.77;;;10.80;99.90;;;;;;4996838;28;20492;-62
2023/04/02 07:23:46;;;;;;;23.83;7.80;;;10.90;99.90;;;;;;5004274;28;20487;-62
2023/04/02 07:26:15;;;;;;;16.27;6.67;;;11.00;99.90;;;;;;5007518;28;21014;-62
2023/04/02 07:28:42;;;;;;;22.97;7.60;;;10.90;99.90;;;;;;5021687;28;21058;-62
2023/04/02 07:31:16;;;;;;;15.37;5.73;;;11.00;99.90;;;;;;5011872;28;20810;-62
2023/04/02 07:33:42;;;;;;;20.90;7.10;;;11.10;99.90;;;;;;4990068;28;20591;-62
2023/04/02 07:36:14;;;;;;;21.97;8.07;;;11.20;99.90;;;;;;5004993;28;21068;-62
2023/04/02 07:38:41;;;;;;;18.30;6.73;;;11.30;99.90;;;;;;4984961;28;20480;-63
2023/04/02 07:41:09;;;;;;;16.93;5.77;;;11.30;99.90;;;;;;4997276;28;20912;-61
2023/04/02 07:43:36;;;;;;;16.67;6.80;;;11.30;99.90;;;;;;4993711;28;20468;-62
2023/04/02 07:46:03;;;;;;;20.30;7.30;;;11.20;99.90;;;;;;4991963;28;20548;-62
2023/04/02 07:48:30;;;;;;;21.10;7.10;;;11.20;99.90;;;;;;5008866;28;20992;-62
2023/04/02 07:50:57;;;;;;;19.90;7.50;;;11.30;99.90;;;;;;5003487;28;20476;-62
2023/04/02 07:53:29;;;;;;;39.40;11.50;;;11.30;99.90;;;;;;4999496;28;20511;-63
2023/04/02 07:55:56;;;;;;;23.87;8.77;;;11.40;99.90;;;;;;5012423;28;20995;-63
2023/04/02 07:58:24;;;;;;;33.00;10.50;;;11.50;99.90;;;;;;5015503;28;20488;-62
2023/04/02 08:00:51;;;;;;;21.93;8.20;;;11.40;99.90;;;;;;5007026;28;20508;-63
2023/04/02 08:03:18;;;;;;;21.10;7.50;;;11.40;99.90;;;;;;5021069;28;20503;-62
2023/04/02 08:05:51;;;;;;;19.57;7.23;;;11.50;99.90;;;;;;5015285;28;21189;-62
2023/04/02 08:08:17;;;;;;;23.17;8.30;;;11.60;99.90;;;;;;4975793;28;20735;-62
2023/04/02 08:10:44;;;;;;;16.80;6.37;;;11.70;99.90;;;;;;4990230;28;20524;-62
2023/04/02 08:13:11;;;;;;;12.50;5.07;;;11.80;99.90;;;;;;5012644;28;20484;-62
2023/04/02 08:15:39;;;;;;;28.43;5.90;;;11.80;99.90;;;;;;4994152;28;21338;-63
2023/04/02 08:18:06;;;;;;;19.57;7.77;;;11.90;99.90;;;;;;5002376;28;21277;-62
2023/04/02 08:20:33;;;;;;;16.90;6.60;;;11.80;99.90;;;;;;5005597;28;20478;-63
2023/04/02 08:23:00;;;;;;;20.53;6.83;;;11.70;99.90;;;;;;4979763;28;20485;-62
2023/04/02 08:25:27;;;;;;;38.50;11.47;;;11.60;99.90;;;;;;4994381;28;20566;-62
2023/04/02 08:27:54;;;;;;;21.80;8.07;;;11.70;99.90;;;;;;4998352;28;20493;-62
2023/04/02 08:30:21;;;;;;;35.50;10.63;;;11.70;99.90;;;;;;4981502;28;20850;-62
2023/04/02 08:32:49;;;;;;;18.40;5.67;;;11.80;99.90;;;;;;4992720;28;20503;-62
2023/04/02 08:35:17;;;;;;;22.97;7.90;;;11.90;99.90;;;;;;4991781;28;20491;-62
2023/04/02 08:37:44;;;;;;;23.50;5.40;;;12.00;99.90;;;;;;5001945;28;20485;-63
2023/04/02 08:40:22;;;;;;;15.50;5.90;;;12.00;99.90;;;;;;4998438;28;20504;-62
2023/04/02 08:43:03;;;;;;;26.03;8.30;;;12.20;99.90;;;;;;5003889;28;20623;-62
2023/04/02 08:45:41;;;;;;;30.43;8.60;;;12.30;99.90;;;;;;4996867;28;20544;-62
2023/04/02 08:48:11;;;;;;;21.90;6.60;;;12.50;99.90;;;;;;4996919;28;20481;-62
2023/04/02 08:50:40;;;;;;;13.83;5.10;;;12.50;99.90;;;;;;5010991;28;20481;-63
2023/04/02 08:53:13;;;;;;;12.93;4.83;;;12.50;99.90;;;;;;5010982;28;20496;-62
2023/04/02 08:55:46;;;;;;;18.67;5.50;;;12.40;99.90;;;;;;5000789;28;20981;-62
2023/04/02 08:58:26;;;;;;;22.47;7.33;;;12.60;99.90;;;;;;5008579;28;20480;-63
2023/04/02 09:00:55;;;;;;;21.63;6.27;;;12.60;99.90;;;;;;5010533;28;20489;-63
2023/04/02 09:03:29;;;;;;;45.30;12.13;;;12.70;99.90;;;;;;5010267;28;20489;-63
2023/04/02 09:05:59;;;;;;;23.47;7.37;;;12.80;99.90;;;;;;4979153;28;20488;-63
2023/04/02 09:08:29;;;;;;;31.87;9.07;;;12.90;99.90;;;;;;4982405;28;20615;-63
2023/04/02 09:11:05;;;;;;;25.00;7.77;;;13.00;99.90;;;;;;5006776;28;20501;-63
2023/04/02 09:13:36;;;;;;;20.73;6.47;;;13.20;99.90;;;;;;5013965;28;20483;-63
2023/04/02 09:16:08;;;;;;;16.30;6.10;;;13.30;99.90;;;;;;4989714;28;20490;-63
2023/04/02 09:18:37;;;;;;;33.97;9.40;;;13.50;99.90;;;;;;4981795;28;20489;-63
2023/04/02 09:21:30;;;;;;;16.70;8.00;;;13.60;99.90;;;;;;4997237;28;20547;-62
2023/04/02 09:23:57;;;;;;;22.63;7.50;;;13.80;99.90;;;;;;4961417;28;20842;-62
2023/04/02 09:26:27;;;;;;;28.63;10.73;;;13.90;99.90;;;;;;5011090;28;20485;-63
2023/04/02 09:29:02;;;;;;;22.07;9.87;;;14.10;99.90;;;;;;5010563;28;20476;-63
2023/04/02 09:31:34;;;;;;;16.00;7.40;;;14.20;99.90;;;;;;4972091;28;20811;-63
2023/04/02 09:34:22;;;;;;;13.23;6.90;;;14.30;99.90;;;;;;4993353;28;20487;-63
2023/04/02 09:36:49;;;;;;;19.43;8.90;;;14.40;99.90;;;;;;5000242;28;21092;-63
2023/04/02 09:39:17;;;;;;;16.27;7.93;;;14.50;99.90;;;;;;4979046;28;20486;-63
2023/04/02 09:41:45;;;;;;;13.10;7.17;;;14.50;99.90;;;;;;5017075;28;20488;-63
2023/04/02 09:44:21;;;;;;;10.00;5.77;;;14.60;99.90;;;;;;4969690;28;20949;-63
2023/04/02 09:46:58;;;;;;;15.37;7.50;;;14.60;99.90;;;;;;5000485;28;20836;-63
2023/04/02 09:49:29;;;;;;;21.27;9.13;;;14.50;99.90;;;;;;4993585;28;20525;-63
2023/04/02 09:52:08;;;;;;;15.13;6.80;;;;;;;;;;5001412;28;20500;-63
2023/04/02 09:54:40;;;;;;;10.70;6.13;;;14.40;99.90;;;;;;5007309;28;20582;-63
2023/04/02 09:57:17;;;;;;;14.20;7.10;;;14.40;99.90;;;;;;5010210;28;20490;-63
2023/04/02 09:59:43;;;;;;;14.33;6.40;;;14.50;99.90;;;;;;4993200;28;20526;-63
2023/04/02 10:02:26;;;;;;;10.67;5.17;;;14.50;99.90;;;;;;4987843;28;20486;-63
2023/04/02 10:04:54;;;;;;;19.73;5.40;;;14.60;99.90;;;;;;4996055;28;20484;-63
2023/04/02 10:07:34;;;;;;;19.33;8.93;;;14.60;99.90;;;;;;4983134;28;20504;-63
2023/04/02 10:10:02;;;;;;;11.03;6.10;;;14.50;99.60;;;;;;5001449;28;20472;-63
2023/04/02 10:12:35;;;;;;;17.13;8.43;;;14.40;99.60;;;;;;5007275;28;20670;-63
2023/04/02 10:15:04;;;;;;;13.57;6.53;;;14.30;99.90;;;;;;4981786;28;21187;-63
2023/04/02 10:17:35;;;;;;;13.43;4.70;;;14.20;99.90;;;;;;4992240;28;20819;-63
2023/04/02 10:20:11;;;;;;;11.50;6.37;;;14.20;99.90;;;;;;4995780;28;21064;-63
2023/04/02 10:22:38;;;;;;;10.17;4.30;;;14.10;99.90;;;;;;4988411;28;20489;-62
2023/04/02 10:25:13;;;;;;;8.50;4.97;;;14.00;99.90;;;;;;4983452;28;20490;-62
2023/04/02 10:27:49;;;;;;;13.20;6.50;;;14.00;99.80;;;;;;4994160;28;20475;-63
2023/04/02 10:30:21;;;;;;;15.83;6.97;;;13.90;99.70;;;;;;5003218;28;20889;-62
2023/04/02 10:32:55;;;;;;;12.13;5.90;;;13.80;99.70;;;;;;4997606;28;20834;-62
2023/04/02 10:35:34;;;;;;;21.13;8.40;;;13.70;99.90;;;;;;5004630;28;20685;-63
2023/04/02 10:38:19;;;;;;;13.23;6.70;;;13.70;99.90;;;;;;4992953;28;20473;-63
2023/04/02 10:40:49;;;;;;;11.80;5.90;;;13.70;99.90;;;;;;4996841;28;20507;-63
2023/04/02 10:43:42;;;;;;;17.50;7.57;;;13.60;99.90;;;;;;5004088;28;21278;-62
2023/04/02 10:46:18;;;;;;;10.40;5.40;;;13.50;99.90;;;;;;4946790;28;20497;-62
2023/04/02 10:48:51;;;;;;;13.93;6.80;;;13.40;99.90;;;;;;5014947;28;20486;-63
2023/04/02 10:51:29;;;;;;;24.90;10.27;;;13.40;99.90;;;;;;4998126;28;20556;-63
2023/04/02 10:54:02;;;;;;;12.23;6.20;;;13.40;99.90;;;;;;4986897;28;20474;-62
2023/04/02 10:56:30;;;;;;;14.83;6.03;;;13.40;99.90;;;;;;4961269;28;21029;-63
2023/04/02 10:59:03;;;;;;;10.57;5.70;;;13.50;99.90;;;;;;5009910;28;20893;-63
2023/04/02 11:01:31;;;;;;;10.23;5.10;;;13.60;99.90;;;;;;5004294;28;21008;-63
2023/04/02 11:04:04;;;;;;;13.70;6.43;;;13.70;99.80;;;;;;4990359;28;20564;-63
2023/04/02 11:06:38;;;;;;;9.73;4.93;;;13.70;99.60;;;;;;4999835;28;20513;-63
2023/04/02 11:09:07;;;;;;;8.47;4.27;;;13.80;99.90;;;;;;4995673;28;20485;-63
2023/04/02 11:11:38;;;;;;;8.10;4.80;;;14.00;99.90;;;;;;4987349;28;21090;-63
2023/04/02 11:14:10;;;;;;;7.53;4.00;;;14.10;99.40;;;;;;4992732;28;20481;-63
2023/04/02 11:16:37;;;;;;;12.80;5.97;;;14.20;99.30;;;;;;4989373;28;20571;-63
2023/04/02 11:19:25;;;;;;;5.60;3.70;;;14.40;99.60;;;;;;4990181;28;20490;-63
2023/04/02 11:21:55;;;;;;;9.03;5.00;;;14.50;99.90;;;;;;4984886;28;20814;-64
2023/04/02 11:24:43;;;;;;;16.40;7.53;;;14.70;98.80;;;;;;5014148;28;20482;-62
2023/04/02 11:27:25;;;;;;;7.13;3.97;;;14.90;99.10;;;;;;4988235;28;21311;-63
2023/04/02 11:29:55;;;;;;;11.03;6.10;;;15.10;99.30;;;;;;4989532;28;20481;-63
2023/04/02 11:32:31;;;;;;;25.43;11.90;;;15.20;97.90;;;;;;4978401;28;20690;-63
2023/04/02 11:35:22;;;;;;;13.00;6.63;;;15.20;98.00;;;;;;4975336;28;20582;-63
2023/04/02 11:37:51;;;;;;;14.50;6.70;;;15.00;97.10;;;;;;4977999;28;20477;-63
2023/04/02 11:40:44;;;;;;;19.53;7.87;;;15.00;97.30;;;;;;4989928;28;20511;-63
2023/04/02 11:43:48;;;;;;;9.87;4.97;;;15.10;98.10;;;;;;4998910;28;20486;-63
2023/04/02 11:46:44;;;;;;;15.70;7.40;;;15.10;98.80;;;;;;5000412;28;20553;-63
2023/04/02 11:49:38;;;;;;;7.53;4.03;;;15.20;98.00;;;;;;5012712;28;20469;-63
2023/04/02 11:52:19;;;;;;;13.00;4.73;;;15.20;97.70;;;;;;5008774;28;20477;-63
2023/04/02 11:55:00;;;;;;;10.73;5.23;;;15.30;98.80;;;;;;4997501;28;20490;-63
2023/04/02 11:57:41;;;;;;;18.43;8.80;;;15.30;97.50;;;;;;4992470;28;20476;-63
2023/04/02 12:00:35;;;;;;;10.20;5.03;;;15.20;98.00;;;;;;4991525;28;20492;-63
2023/04/02 12:03:27;;;;;;;12.93;6.47;;;15.30;97.50;;;;;;4986285;28;20850;-63
2023/04/02 12:06:01;;;;;;;12.50;7.07;;;15.30;98.30;;;;;;4982234;28;20489;-63
2023/04/02 12:08:40;;;;;;;21.40;10.10;;;15.30;98.40;;;;;;4976099;28;20474;-63
2023/04/02 12:11:09;;;;;;;9.77;5.70;;;15.40;98.40;;;;;;4994115;28;20881;-63
2023/04/02 12:13:50;;;;;;;9.53;4.90;;;15.40;97.80;;;;;;4992938;28;20532;-64
2023/04/02 12:16:18;;;;;;;21.20;8.97;;;15.50;98.40;;;;;;4972560;28;20489;-63
2023/04/02 12:18:50;;;;;;;15.03;7.27;;;15.50;98.50;;;;;;5007472;28;20472;-63
2023/04/02 12:21:18;;;;;;;23.57;8.97;;;15.50;98.50;;;;;;4986846;28;20480;-63
2023/04/02 12:23:46;;;;;;;9.87;6.13;;;15.60;98.50;;;;;;5000041;28;20473;-63
2023/04/02 12:26:30;;;;;;;12.53;7.17;;;;;;;;;;4995035;28;21075;-63
2023/04/02 12:29:21;;;;;;;11.97;6.73;;;15.40;98.00;;;;;;4973744;28;20685;-63
2023/04/02 12:31:48;;;;;;;16.53;6.90;;;15.30;98.00;;;;;;5005576;28;20472;-63
2023/04/02 12:34:16;;;;;;;16.77;8.57;;;15.10;98.00;;;;;;4993090;28;20489;-63
2023/04/02 12:36:52;;;;;;;12.03;6.67;;;15.00;98.60;;;;;;4996940;28;20486;-63
2023/04/02 12:39:20;;;;;;;21.63;8.67;;;14.70;98.90;;;;;;4995114;28;20993;-62
2023/04/02 12:41:47;;;;;;;13.53;6.47;;;14.50;99.20;;;;;;4988024;28;20953;-63
2023/04/02 12:44:16;;;;;;;17.87;7.70;;;14.20;99.90;;;;;;4985453;28;20869;-62
2023/04/02 12:46:45;;;;;;;11.23;3.83;;;13.70;99.90;;;;;;4983727;28;20492;-62
2023/04/02 12:49:23;;;;;;;11.00;5.07;;;13.60;99.90;;;;;;5002903;28;20489;-62
2023/04/02 12:51:51;;;;;;;15.87;5.30;;;13.30;99.90;;;;;;5011392;28;20483;-62
2023/04/02 12:54:19;;;;;;;19.20;7.87;;;13.00;99.90;;;;;;5006419;28;20470;-61
2023/04/02 12:56:46;;;;;;;16.40;7.10;;;13.00;99.90;;;;;;5001940;28;20493;-61
2023/04/02 12:59:32;;;;;;;14.37;5.07;;;12.80;99.90;;;;;;4996301;28;20489;-62
2023/04/02 13:02:02;;;;;;;14.10;5.97;;;12.80;99.90;;;;;;4996749;28;20692;-62
2023/04/02 13:04:28;;;;;;;19.40;7.07;;;12.80;99.90;;;;;;4995949;28;20505;-61
2023/04/02 13:06:56;;;;;;;14.70;6.17;;;12.60;99.90;;;;;;4995824;28;20835;-62
2023/04/02 13:09:30;;;;;;;27.03;9.83;;;12.50;99.90;;;;;;4992458;28;20919;-61